createdAt,value
2017-07-25T00:01:54.003Z,88.27
2017-07-25T00:04:22.354Z,88.40
2017-07-25T00:06:50.683Z,88.34
2017-07-25T00:09:19.040Z,87.80
2017-07-25T00:11:47.381Z,87.96
2017-07-25T00:14:15.718Z,88.66
2017-07-25T00:16:44.073Z,88.72
2017-07-25T00:19:12.390Z,89.37
2017-07-25T00:21:40.743Z,89.23
2017-07-25T00:24:09.076Z,88.87
2017-07-25T00:26:37.430Z,88.98
2017-07-25T00:29:05.804Z,89.06
2017-07-25T00:31:34.125Z,89.03
2017-07-25T00:34:02.469Z,89.76
2017-07-25T00:36:30.824Z,89.46
2017-07-25T00:38:59.163Z,89.28
2017-07-25T00:41:27.526Z,89.01
2017-07-25T00:43:55.932Z,89.29
2017-07-25T00:46:24.542Z,88.75
2017-07-25T00:48:52.858Z,89.06
2017-07-25T00:51:21.180Z,89.88
2017-07-25T00:53:49.525Z,89.30
2017-07-25T00:56:17.857Z,89.19
2017-07-25T00:58:46.442Z,88.81
2017-07-25T01:01:14.760Z,88.77
2017-07-25T01:03:43.109Z,89.37
2017-07-25T01:06:11.493Z,88.97
2017-07-25T01:08:39.828Z,88.58
2017-07-25T01:11:08.183Z,88.64
2017-07-25T01:13:36.522Z,89.03
2017-07-25T01:16:04.853Z,88.77
2017-07-25T01:18:33.204Z,88.62
2017-07-25T01:21:01.527Z,89.70
2017-07-25T01:23:29.858Z,89.12
2017-07-25T01:25:58.202Z,89.12
2017-07-25T01:28:26.512Z,89.30
2017-07-25T01:30:54.866Z,89.38
2017-07-25T01:33:23.206Z,88.87
2017-07-25T01:35:51.819Z,89.17
2017-07-25T01:38:20.141Z,89.70
2017-07-25T01:40:49.068Z,89.32
2017-07-25T01:43:17.421Z,89.27
2017-07-25T01:45:45.747Z,89.74
2017-07-25T01:48:14.340Z,89.58
2017-07-25T01:50:42.662Z,89.14
2017-07-25T01:53:10.999Z,89.49
2017-07-25T01:55:39.622Z,89.32
2017-07-25T01:58:07.975Z,90.18
2017-07-25T02:00:36.319Z,89.95
2017-07-25T02:03:04.948Z,90.51
2017-07-25T02:05:33.288Z,90.72
2017-07-25T02:08:01.681Z,90.45
2017-07-25T02:10:30.127Z,90.39
2017-07-25T02:12:58.468Z,90.69
2017-07-25T02:15:27.070Z,90.27
2017-07-25T02:17:55.390Z,90.17
2017-07-25T02:20:23.711Z,90.86
2017-07-25T02:22:52.048Z,90.35
2017-07-25T02:25:20.374Z,90.20
2017-07-25T02:27:48.720Z,90.83
2017-07-25T02:30:17.058Z,90.61
2017-07-25T02:32:45.410Z,90.39
2017-07-25T02:35:13.771Z,90.33
2017-07-25T02:37:42.116Z,90.32
2017-07-25T02:40:10.503Z,89.37
2017-07-25T02:42:38.853Z,89.75
2017-07-25T02:45:07.197Z,89.67
2017-07-25T02:47:35.568Z,89.46
2017-07-25T02:50:03.933Z,89.61
2017-07-25T02:52:32.297Z,89.28
2017-07-25T02:55:00.652Z,88.93
2017-07-25T02:57:28.998Z,89.28
2017-07-25T02:59:57.603Z,88.89
2017-07-25T03:02:26.008Z,89.07
2017-07-25T03:04:54.409Z,89.12
2017-07-25T03:07:22.757Z,89.76
2017-07-25T03:09:51.100Z,89.73
2017-07-25T03:12:19.741Z,89.68
2017-07-25T03:14:48.064Z,90.02
2017-07-25T03:17:16.397Z,89.69
2017-07-25T03:19:44.775Z,89.38
2017-07-25T03:22:13.125Z,89.62
2017-07-25T03:24:41.819Z,89.75
2017-07-25T03:27:10.171Z,90.25
2017-07-25T03:29:38.505Z,89.84
2017-07-25T03:32:06.855Z,90.00
2017-07-25T03:34:35.185Z,89.44
2017-07-25T03:37:03.804Z,89.53
2017-07-25T03:39:32.131Z,89.55
2017-07-25T03:42:00.454Z,90.00
2017-07-25T03:44:28.824Z,89.94
2017-07-25T03:46:57.159Z,89.72
2017-07-25T03:49:25.801Z,90.00
2017-07-25T03:51:54.146Z,89.87
2017-07-25T03:54:22.490Z,89.75
2017-07-25T03:56:50.898Z,89.59
2017-07-25T03:59:19.243Z,89.96
2017-07-25T04:01:47.581Z,89.92
2017-07-25T04:04:15.919Z,90.02
2017-07-25T04:06:44.246Z,89.85
2017-07-25T04:09:12.597Z,89.86
2017-07-25T04:11:40.947Z,89.77
2017-07-25T04:14:09.325Z,89.90
2017-07-25T04:16:37.656Z,89.90
2017-07-25T04:19:05.988Z,90.02
2017-07-25T04:21:34.302Z,89.36
2017-07-25T04:24:02.905Z,89.14
2017-07-25T04:26:31.237Z,89.10
2017-07-25T04:28:59.564Z,88.97
2017-07-25T04:31:27.905Z,88.65
2017-07-25T04:33:56.223Z,88.87
2017-07-25T04:36:24.826Z,88.74
2017-07-25T04:38:53.738Z,89.00
2017-07-25T04:41:22.054Z,89.00
2017-07-25T04:43:50.398Z,89.71
2017-07-25T04:46:18.728Z,89.47
2017-07-25T04:48:47.384Z,89.66
2017-07-25T04:51:15.727Z,89.44
2017-07-25T04:53:44.060Z,89.61
2017-07-25T04:56:12.401Z,88.64
2017-07-25T04:58:40.754Z,89.14
2017-07-25T05:01:09.360Z,89.07
2017-07-25T05:03:37.671Z,89.05
2017-07-25T05:06:05.994Z,89.20
2017-07-25T05:08:34.336Z,89.24
2017-07-25T05:11:02.661Z,89.03
2017-07-25T05:13:31.001Z,89.40
2017-07-25T05:15:59.354Z,89.72
2017-07-25T05:18:40.455Z,89.72
2017-07-25T05:21:08.800Z,89.23
2017-07-25T05:23:37.135Z,89.55
2017-07-25T05:26:05.482Z,89.76
2017-07-25T05:28:33.817Z,89.65
2017-07-25T05:31:02.184Z,88.83
2017-07-25T05:33:31.139Z,88.84
2017-07-25T05:35:59.483Z,88.71
2017-07-25T05:38:27.832Z,88.31
2017-07-25T05:40:56.147Z,87.09
2017-07-25T05:43:24.725Z,87.50
2017-07-25T05:45:53.060Z,87.50
2017-07-25T05:48:21.376Z,87.18
2017-07-25T05:50:49.726Z,86.66
2017-07-25T05:53:18.058Z,87.12
2017-07-25T05:55:46.659Z,88.21
2017-07-25T05:58:14.971Z,87.16
2017-07-25T06:00:43.293Z,86.48
2017-07-25T06:03:11.876Z,87.00
2017-07-25T06:05:40.204Z,87.70
2017-07-25T06:08:08.514Z,87.37
2017-07-25T06:10:37.455Z,87.74
2017-07-25T06:13:05.787Z,87.17
2017-07-25T06:15:34.380Z,86.39
2017-07-25T06:18:02.711Z,85.96
2017-07-25T06:20:31.027Z,85.76
2017-07-25T06:22:59.363Z,86.73
2017-07-25T06:25:27.695Z,87.11
2017-07-25T06:27:56.306Z,86.19
2017-07-25T06:30:24.647Z,86.56
2017-07-25T06:32:52.963Z,88.30
2017-07-25T06:35:21.325Z,89.07
2017-07-25T06:37:49.643Z,88.79
2017-07-25T06:40:18.001Z,88.53
2017-07-25T06:42:46.328Z,88.66
2017-07-25T06:45:14.935Z,86.57
2017-07-25T06:47:43.260Z,85.26
2017-07-25T06:50:11.578Z,86.35
2017-07-25T06:52:39.947Z,86.32
2017-07-25T06:55:08.353Z,84.16
2017-07-25T06:57:36.973Z,85.09
2017-07-25T07:00:05.300Z,85.28
2017-07-25T07:02:33.661Z,85.84
2017-07-25T07:05:02.017Z,85.96
2017-07-25T07:07:30.340Z,86.22
2017-07-25T07:09:58.973Z,84.57
2017-07-25T07:12:27.307Z,83.98
2017-07-25T07:14:55.644Z,84.57
2017-07-25T07:17:23.999Z,83.09
2017-07-25T07:19:52.346Z,84.45
2017-07-25T07:22:20.964Z,82.98
2017-07-25T07:24:49.344Z,84.44
2017-07-25T07:27:17.688Z,85.73
2017-07-25T07:29:46.029Z,85.65
2017-07-25T07:32:14.359Z,85.24
2017-07-25T07:34:42.958Z,83.20
2017-07-25T07:37:11.292Z,82.21
2017-07-25T07:39:39.639Z,83.22
2017-07-25T07:42:07.996Z,83.87
2017-07-25T07:44:36.327Z,83.64
2017-07-25T07:47:04.685Z,81.25
2017-07-25T07:49:33.035Z,79.46
2017-07-25T07:52:01.376Z,81.11
2017-07-25T07:54:29.733Z,81.99
2017-07-25T07:56:58.068Z,80.08
2017-07-25T07:59:26.422Z,80.87
2017-07-25T08:01:54.774Z,79.27
2017-07-25T08:04:23.095Z,78.16
2017-07-25T08:06:51.427Z,77.85
2017-07-25T08:09:19.750Z,78.20
2017-07-25T08:11:48.378Z,78.62
2017-07-25T08:14:16.695Z,77.12
2017-07-25T08:16:45.032Z,77.74
2017-07-25T08:19:13.629Z,76.84
2017-07-25T08:21:41.975Z,77.97
2017-07-25T08:24:10.312Z,78.12
2017-07-25T08:26:38.643Z,77.00
2017-07-25T08:29:06.981Z,77.28
2017-07-25T08:31:35.583Z,79.08
2017-07-25T08:34:03.909Z,79.07
2017-07-25T08:36:32.231Z,77.86
2017-07-25T08:39:00.595Z,79.78
2017-07-25T08:41:28.917Z,79.52
2017-07-25T08:43:58.753Z,79.17
2017-07-25T08:46:27.125Z,78.86
2017-07-25T08:48:55.484Z,78.40
2017-07-25T08:51:23.877Z,78.51
2017-07-25T08:53:52.218Z,78.25
2017-07-25T08:56:20.856Z,78.75
2017-07-25T08:58:49.202Z,79.00
2017-07-25T09:01:17.534Z,79.17
2017-07-25T09:03:45.880Z,80.66
2017-07-25T09:06:14.217Z,79.75
2017-07-25T09:08:42.813Z,75.98
2017-07-25T09:11:11.144Z,78.85
2017-07-25T09:13:39.487Z,78.83
2017-07-25T09:16:07.851Z,76.61
2017-07-25T09:18:36.189Z,76.74
2017-07-25T09:21:04.549Z,75.81
2017-07-25T09:23:35.674Z,75.97
2017-07-25T09:26:04.393Z,79.53
2017-07-25T09:28:32.740Z,79.21
2017-07-25T09:31:01.075Z,79.11
2017-07-25T09:33:29.446Z,79.10
2017-07-25T09:35:57.788Z,80.10
2017-07-25T09:38:26.605Z,80.05
2017-07-25T09:40:54.923Z,78.83
2017-07-25T09:43:23.247Z,78.11
2017-07-25T09:45:52.353Z,76.46
2017-07-25T09:48:20.676Z,75.42
2017-07-25T09:50:49.030Z,77.01
2017-07-25T09:53:17.397Z,76.21
2017-07-25T09:55:45.731Z,75.02
2017-07-25T09:58:14.358Z,76.57
2017-07-25T10:00:42.676Z,75.31
2017-07-25T10:03:11.019Z,75.30
2017-07-25T10:05:39.380Z,75.29
2017-07-25T10:08:07.721Z,73.49
2017-07-25T10:10:36.089Z,74.99
2017-07-25T10:13:04.436Z,74.60
2017-07-25T10:15:33.549Z,73.70
2017-07-25T10:18:02.227Z,75.17
2017-07-25T10:20:30.571Z,75.32
2017-07-25T10:22:58.902Z,73.55
2017-07-25T10:25:27.325Z,74.79
2017-07-25T10:27:55.705Z,74.43
2017-07-25T10:30:24.372Z,74.51
2017-07-25T10:32:52.714Z,73.80
2017-07-25T10:35:21.067Z,72.58
2017-07-25T10:37:50.217Z,72.77
2017-07-25T10:40:18.571Z,71.65
2017-07-25T10:42:47.239Z,71.68
2017-07-25T10:45:15.552Z,71.62
2017-07-25T10:47:43.878Z,73.20
2017-07-25T10:50:12.209Z,72.63
2017-07-25T10:52:40.533Z,72.34
2017-07-25T10:55:09.131Z,71.45
2017-07-25T10:57:37.483Z,70.94
2017-07-25T11:00:05.832Z,71.62
2017-07-25T11:02:34.212Z,72.60
2017-07-25T11:05:02.553Z,72.66
2017-07-25T11:07:32.005Z,73.23
2017-07-25T11:10:00.323Z,73.03
2017-07-25T11:12:28.644Z,70.65
2017-07-25T11:14:56.990Z,71.94
2017-07-25T11:17:26.101Z,69.33
2017-07-25T11:19:54.447Z,70.63
2017-07-25T11:22:22.789Z,70.89
2017-07-25T11:24:51.116Z,70.27
2017-07-25T11:27:19.464Z,71.53
2017-07-25T11:29:47.782Z,73.33
2017-07-25T11:32:16.419Z,73.72
2017-07-25T11:34:44.740Z,73.06
2017-07-25T11:37:13.084Z,71.50
2017-07-25T11:39:41.436Z,70.99
2017-07-25T11:42:09.771Z,70.42
2017-07-25T11:44:38.586Z,70.32
2017-07-25T11:47:06.914Z,70.06
2017-07-25T11:49:35.236Z,70.27
2017-07-25T11:52:04.447Z,69.75
2017-07-25T11:54:32.786Z,69.98
2017-07-25T11:57:01.152Z,68.82
2017-07-25T11:59:29.490Z,69.11
2017-07-25T12:01:58.174Z,69.22
2017-07-25T12:04:26.526Z,68.08
2017-07-25T12:06:54.868Z,68.97
2017-07-25T12:09:23.235Z,70.11
2017-07-25T12:11:51.563Z,69.13
2017-07-25T12:14:20.178Z,69.17
2017-07-25T12:16:48.523Z,68.66
2017-07-25T12:19:16.863Z,68.54
2017-07-25T12:21:46.136Z,69.22
2017-07-25T12:24:14.482Z,69.29
2017-07-25T12:26:43.210Z,68.62
2017-07-25T12:29:11.554Z,68.34
2017-07-25T12:31:39.890Z,69.83
2017-07-25T12:34:08.243Z,68.21
2017-07-25T12:36:36.568Z,69.34
2017-07-25T12:39:05.714Z,67.77
2017-07-25T12:41:34.064Z,68.40
2017-07-25T12:44:02.463Z,68.87
2017-07-25T12:46:31.110Z,66.97
2017-07-25T12:49:01.498Z,69.05
2017-07-25T12:51:29.965Z,65.69
2017-07-25T12:53:58.404Z,67.47
2017-07-25T12:56:26.839Z,67.30
2017-07-25T12:58:55.247Z,66.87
2017-07-25T13:01:41.259Z,67.64
2017-07-25T13:04:09.650Z,67.11
2017-07-25T13:06:38.004Z,67.41
2017-07-25T13:09:06.360Z,67.50
2017-07-25T13:11:34.738Z,67.97
2017-07-25T13:14:03.105Z,71.37
2017-07-25T13:16:31.444Z,72.38
2017-07-25T13:18:59.801Z,75.17
2017-07-25T13:21:28.128Z,75.05
2017-07-25T13:23:56.501Z,77.16
2017-07-25T13:26:24.859Z,79.56
2017-07-25T13:28:53.207Z,81.09
2017-07-25T13:31:21.795Z,79.78
2017-07-25T13:33:50.187Z,79.84
2017-07-25T13:36:18.511Z,81.08
2017-07-25T13:38:46.866Z,78.64
2017-07-25T13:41:15.206Z,77.67
2017-07-25T13:43:43.543Z,79.90
2017-07-25T13:46:11.899Z,81.80
2017-07-25T13:48:40.233Z,81.94
2017-07-25T13:51:08.615Z,82.04
2017-07-25T13:53:36.940Z,81.68
2017-07-25T13:56:05.301Z,79.86
2017-07-25T13:58:34.158Z,82.67
2017-07-25T14:01:02.485Z,83.32
2017-07-25T14:03:31.105Z,83.75
2017-07-25T14:06:00.209Z,84.36
2017-07-25T14:08:28.529Z,83.50
2017-07-25T14:10:56.876Z,83.06
2017-07-25T14:13:26.000Z,83.81
2017-07-25T14:15:54.330Z,84.00
2017-07-25T14:18:22.698Z,82.70
2017-07-25T14:20:51.037Z,83.95
2017-07-25T14:23:19.425Z,81.86
2017-07-25T14:25:47.787Z,82.24
2017-07-25T14:28:16.119Z,82.53
2017-07-25T14:30:44.453Z,83.06
2017-07-25T14:33:12.789Z,82.82
2017-07-25T14:35:41.146Z,83.08
2017-07-25T14:38:09.481Z,83.08
2017-07-25T14:40:37.815Z,82.84
2017-07-25T14:43:06.152Z,82.50
2017-07-25T14:45:34.550Z,80.31
2017-07-25T14:48:03.161Z,83.31
2017-07-25T14:50:31.500Z,83.79
2017-07-25T14:52:59.861Z,82.17
2017-07-25T14:55:28.228Z,84.64
2017-07-25T14:57:56.567Z,84.41
2017-07-25T15:00:24.917Z,84.68
2017-07-25T15:02:53.257Z,84.96
2017-07-25T15:05:21.606Z,84.83
2017-07-25T15:07:49.947Z,83.89
2017-07-25T15:10:18.294Z,83.66
2017-07-25T15:12:46.666Z,84.09
2017-07-25T15:15:15.041Z,82.28
2017-07-25T15:17:43.384Z,83.01
2017-07-25T15:20:11.728Z,84.22
2017-07-25T15:22:40.054Z,84.29
2017-07-25T15:25:08.694Z,81.77
2017-07-25T15:27:37.038Z,82.25
2017-07-25T15:30:05.379Z,83.76
2017-07-25T15:32:33.740Z,82.80
2017-07-25T15:35:02.080Z,82.79
2017-07-25T15:37:30.432Z,84.12
2017-07-25T15:39:58.791Z,84.53
2017-07-25T15:42:27.141Z,81.58
2017-07-25T15:44:57.262Z,82.22
2017-07-25T15:47:25.585Z,82.36
2017-07-25T15:49:54.181Z,83.71
2017-07-25T15:52:22.546Z,85.54
2017-07-25T15:54:50.884Z,85.36
2017-07-25T15:57:19.241Z,85.18
2017-07-25T15:59:47.573Z,84.90
2017-07-25T16:02:15.920Z,82.32
2017-07-25T16:04:44.256Z,80.42
2017-07-25T16:07:12.623Z,78.92
2017-07-25T16:09:40.988Z,80.84
2017-07-25T16:12:09.307Z,81.05
2017-07-25T16:14:38.143Z,83.08
2017-07-25T16:17:06.492Z,83.31
2017-07-25T16:19:34.830Z,83.71
2017-07-25T16:22:03.192Z,84.34
2017-07-25T16:24:31.521Z,84.67
2017-07-25T16:26:59.868Z,81.07
2017-07-25T16:29:28.225Z,82.55
2017-07-25T16:31:56.556Z,83.88
2017-07-25T16:34:24.918Z,84.29
2017-07-25T16:36:53.481Z,83.73
2017-07-25T16:39:22.249Z,83.76
2017-07-25T16:41:50.590Z,83.29
2017-07-25T16:44:18.946Z,84.15
2017-07-25T16:46:47.308Z,81.73
2017-07-25T16:49:15.656Z,82.62
2017-07-25T16:51:44.781Z,83.99
2017-07-25T16:54:13.154Z,82.78
2017-07-25T16:56:41.523Z,81.70
2017-07-25T16:59:10.445Z,81.70
2017-07-25T17:01:38.764Z,84.44
2017-07-25T17:04:07.147Z,84.19
2017-07-25T17:06:35.507Z,83.81
2017-07-25T17:09:03.859Z,84.22
2017-07-25T17:11:32.234Z,83.46
2017-07-25T17:14:01.614Z,83.92
2017-07-25T17:16:30.398Z,84.17
2017-07-25T17:18:58.750Z,85.06
2017-07-25T17:21:27.091Z,85.20
2017-07-25T17:23:55.849Z,85.78
2017-07-25T17:26:24.177Z,85.87
2017-07-25T17:28:52.560Z,86.49
2017-07-25T17:31:20.926Z,85.50
2017-07-25T17:33:49.266Z,85.98
2017-07-25T17:36:17.646Z,84.74
2017-07-25T17:38:46.019Z,83.11
2017-07-25T17:41:14.409Z,83.54
2017-07-25T17:43:42.773Z,82.96
2017-07-25T17:46:11.114Z,84.72
2017-07-25T17:48:39.452Z,84.93
2017-07-25T17:51:07.777Z,84.58
2017-07-25T17:53:36.146Z,85.21
2017-07-25T17:56:04.490Z,84.38
2017-07-25T17:58:33.107Z,84.81
2017-07-25T18:01:01.511Z,85.65
2017-07-25T18:03:29.853Z,85.52
2017-07-25T18:05:58.626Z,85.01
2017-07-25T18:08:26.960Z,85.69
2017-07-25T18:10:55.342Z,86.94
2017-07-25T18:13:23.706Z,86.98
2017-07-25T18:15:52.057Z,87.12
2017-07-25T18:18:20.497Z,86.77
2017-07-25T18:20:48.844Z,87.30
2017-07-25T18:23:17.191Z,86.48
2017-07-25T18:25:45.517Z,87.45
2017-07-25T18:28:13.918Z,86.00
2017-07-25T18:30:43.053Z,86.03
2017-07-25T18:33:11.482Z,85.80
2017-07-25T18:35:40.817Z,86.16
2017-07-25T18:38:09.657Z,84.06
2017-07-25T18:40:38.298Z,84.42
2017-07-25T18:43:07.843Z,83.67
2017-07-25T18:45:36.227Z,86.19
2017-07-25T18:48:04.586Z,85.75
2017-07-25T18:50:32.960Z,84.51
2017-07-25T18:53:01.296Z,83.89
2017-07-25T18:55:29.840Z,84.93
2017-07-25T18:57:58.633Z,86.56
2017-07-25T19:00:27.311Z,85.04
2017-07-25T19:02:55.724Z,83.89
2017-07-25T19:05:24.074Z,85.75
2017-07-25T19:07:52.459Z,85.74
2017-07-25T19:10:20.798Z,84.97
2017-07-25T19:12:49.208Z,84.83
2017-07-25T19:15:17.565Z,83.39
2017-07-25T19:17:45.941Z,84.98
2017-07-25T19:20:14.290Z,84.53
2017-07-25T19:22:42.671Z,85.28
2017-07-25T19:25:11.396Z,84.41
2017-07-25T19:27:39.732Z,84.55
2017-07-25T19:30:08.058Z,85.96
2017-07-25T19:32:36.406Z,84.58
2017-07-25T19:35:05.526Z,85.17
2017-07-25T19:37:33.877Z,85.27
2017-07-25T19:40:02.279Z,85.05
2017-07-25T19:42:30.632Z,86.23
2017-07-25T19:44:59.023Z,87.06
2017-07-25T19:47:27.380Z,85.50
2017-07-25T19:49:56.491Z,86.23
2017-07-25T19:52:24.841Z,85.05
2017-07-25T19:54:53.211Z,85.08
2017-07-25T19:57:23.210Z,84.44
2017-07-25T19:59:51.550Z,85.61
2017-07-25T20:02:19.883Z,86.01
2017-07-25T20:04:48.462Z,87.29
2017-07-25T20:07:16.828Z,86.45
2017-07-25T20:09:45.631Z,86.36
2017-07-25T20:12:13.968Z,85.18
2017-07-25T20:14:42.318Z,85.19
2017-07-25T20:17:10.659Z,85.94
2017-07-25T20:19:39.008Z,86.51
2017-07-25T20:22:08.423Z,85.84
2017-07-25T20:24:36.761Z,86.13
2017-07-25T20:27:05.099Z,87.38
2017-07-25T20:29:33.595Z,87.05
2017-07-25T20:32:01.988Z,87.29
2017-07-25T20:34:30.639Z,88.21
2017-07-25T20:36:58.991Z,85.94
2017-07-25T20:39:27.332Z,86.78
2017-07-25T20:41:55.688Z,86.49
2017-07-25T20:44:24.025Z,85.52
2017-07-25T20:46:52.452Z,86.34
2017-07-25T20:49:20.799Z,86.32
2017-07-25T20:51:49.916Z,86.99
2017-07-25T20:54:18.269Z,86.29
2017-07-25T20:56:46.619Z,87.43
2017-07-25T20:59:14.971Z,87.03
2017-07-25T21:01:43.327Z,87.43
2017-07-25T21:04:11.713Z,88.27
2017-07-25T21:06:40.144Z,87.79
2017-07-25T21:09:08.497Z,86.85
2017-07-25T21:11:36.863Z,86.38
2017-07-25T21:14:05.222Z,86.93
2017-07-25T21:16:33.575Z,87.52
2017-07-25T21:19:01.948Z,86.38
2017-07-25T21:21:30.269Z,87.39
2017-07-25T21:23:58.612Z,87.52
2017-07-25T21:26:26.956Z,87.77
2017-07-25T21:28:55.338Z,86.71
2017-07-25T21:31:23.684Z,86.35
2017-07-25T21:33:52.031Z,87.86
2017-07-25T21:36:20.372Z,88.76
2017-07-25T21:38:48.693Z,88.68
2017-07-25T21:41:17.083Z,88.20
2017-07-25T21:43:45.453Z,87.38
2017-07-25T21:46:13.805Z,87.22
2017-07-25T21:48:42.166Z,86.88
2017-07-25T21:51:10.488Z,87.73
2017-07-25T21:53:38.825Z,87.22
2017-07-25T21:56:07.173Z,86.43
2017-07-25T21:58:35.540Z,86.50
2017-07-25T22:01:21.461Z,88.75
2017-07-25T22:04:07.243Z,87.88
2017-07-25T22:06:35.587Z,88.53
2017-07-25T22:09:03.925Z,88.19
2017-07-25T22:11:32.795Z,86.84
2017-07-25T22:14:01.549Z,86.02
2017-07-25T22:16:30.451Z,86.65
2017-07-25T22:18:59.454Z,87.48
2017-07-25T22:21:28.315Z,88.09
2017-07-25T22:23:57.277Z,87.19
2017-07-25T22:26:26.071Z,87.51
2017-07-25T22:28:54.521Z,86.10
2017-07-25T22:31:22.875Z,87.02
2017-07-25T22:33:51.206Z,87.83
2017-07-25T22:36:19.559Z,87.28
2017-07-25T22:38:47.895Z,86.59
2017-07-25T22:41:16.234Z,87.13
2017-07-25T22:43:44.559Z,87.90
2017-07-25T22:46:12.911Z,87.40
2017-07-25T22:48:41.264Z,88.53
2017-07-25T22:51:09.630Z,87.43
2017-07-25T22:53:37.967Z,88.19
2017-07-25T22:56:06.316Z,87.64
2017-07-25T22:58:34.645Z,88.57
2017-07-25T23:01:02.997Z,88.11
2017-07-25T23:03:31.351Z,87.40
2017-07-25T23:06:00.410Z,87.39
2017-07-25T23:08:28.760Z,88.76
2017-07-25T23:10:57.084Z,88.32
2017-07-25T23:13:25.677Z,88.99
2017-07-25T23:15:54.012Z,88.66
2017-07-25T23:18:22.328Z,88.64
2017-07-25T23:20:50.678Z,88.89
2017-07-25T23:23:19.008Z,88.55
2017-07-25T23:25:47.358Z,89.32
2017-07-25T23:28:15.687Z,89.04
2017-07-25T23:30:44.044Z,89.16
2017-07-25T23:33:12.397Z,87.96
2017-07-25T23:35:40.718Z,87.90
2017-07-25T23:38:09.073Z,88.69
2017-07-25T23:40:37.404Z,88.16
2017-07-25T23:43:05.771Z,88.76
2017-07-25T23:45:34.101Z,88.21
2017-07-25T23:48:02.472Z,87.68
2017-07-25T23:50:30.829Z,88.35
2017-07-25T23:52:59.154Z,89.18
2017-07-25T23:55:27.558Z,89.63
2017-07-25T23:57:55.914Z,89.21
